sensor_id;sensor_type;location;lat;lon;timestamp;temperature;humidity
6824;DHT22;58633;49.470;11.004;2023-04-25T00:01:59;9.80;66.10
6824;DHT22;58633;49.470;11.004;2023-04-25T00:04:25;9.80;66.10
6824;DHT22;58633;49.470;11.004;2023-04-25T00:06:55;9.80;66.10
6824;DHT22;58633;49.470;11.004;2023-04-25T00:09:22;9.90;66.10
6824;DHT22;58633;49.470;11.004;2023-04-25T00:11:47;9.90;65.80
6824;DHT22;58633;49.470;11.004;2023-04-25T00:14:13;9.80;65.60
6824;DHT22;58633;49.470;11.004;2023-04-25T00:16:39;9.90;65.70
6824;DHT22;58633;49.470;11.004;2023-04-25T00:19:06;9.90;66.30
6824;DHT22;58633;49.470;11.004;2023-04-25T00:21:33;9.90;65.60
6824;DHT22;58633;49.470;11.004;2023-04-25T00:23:59;10.20;64.70
6824;DHT22;58633;49.470;11.004;2023-04-25T00:26:25;9.90;65.40
6824;DHT22;58633;49.470;11.004;2023-04-25T00:28:51;9.90;65.40
6824;DHT22;58633;49.470;11.004;2023-04-25T00:31:16;9.90;66.10
6824;DHT22;58633;49.470;11.004;2023-04-25T00:33:42;9.90;65.40
6824;DHT22;58633;49.470;11.004;2023-04-25T00:36:07;9.90;65.40
6824;DHT22;58633;49.470;11.004;2023-04-25T00:38:33;9.90;65.40
6824;DHT22;58633;49.470;11.004;2023-04-25T00:40:58;9.90;65.50
6824;DHT22;58633;49.470;11.004;2023-04-25T00:43:26;9.90;65.60
6824;DHT22;58633;49.470;11.004;2023-04-25T00:45:52;9.90;65.60
6824;DHT22;58633;49.470;11.004;2023-04-25T00:48:20;9.90;65.60
6824;DHT22;58633;49.470;11.004;2023-04-25T00:50:52;9.90;65.60
6824;DHT22;58633;49.470;11.004;2023-04-25T00:53:20;9.90;65.60
6824;DHT22;58633;49.470;11.004;2023-04-25T00:55:45;9.90;65.60
6824;DHT22;58633;49.470;11.004;2023-04-25T00:58:11;9.90;65.60
6824;DHT22;58633;49.470;11.004;2023-04-25T01:00:37;9.90;65.50
6824;DHT22;58633;49.470;11.004;2023-04-25T01:03:03;9.80;65.40
6824;DHT22;58633;49.470;11.004;2023-04-25T01:05:29;9.80;65.50
6824;DHT22;58633;49.470;11.004;2023-04-25T01:07:55;9.90;65.60
6824;DHT22;58633;49.470;11.004;2023-04-25T01:10:21;9.90;65.60
6824;DHT22;58633;49.470;11.004;2023-04-25T01:12:46;9.80;65.70
6824;DHT22;58633;49.470;11.004;2023-04-25T01:15:12;9.80;65.90
6824;DHT22;58633;49.470;11.004;2023-04-25T01:17:38;9.80;66.00
6824;DHT22;58633;49.470;11.004;2023-04-25T01:20:05;9.70;65.80
6824;DHT22;58633;49.470;11.004;2023-04-25T01:22:33;9.70;66.10
6824;DHT22;58633;49.470;11.004;2023-04-25T01:24:59;9.80;66.30
6824;DHT22;58633;49.470;11.004;2023-04-25T01:27:25;9.70;66.10
6824;DHT22;58633;49.470;11.004;2023-04-25T01:29:51;9.80;66.20
6824;DHT22;58633;49.470;11.004;2023-04-25T01:32:17;9.70;66.10
6824;DHT22;58633;49.470;11.004;2023-04-25T01:34:43;9.70;66.20
6824;DHT22;58633;49.470;11.004;2023-04-25T01:37:09;9.70;66.30
6824;DHT22;58633;49.470;11.004;2023-04-25T01:39:34;9.70;66.40
6824;DHT22;58633;49.470;11.004;2023-04-25T01:42:00;9.70;66.50
6824;DHT22;58633;49.470;11.004;2023-04-25T01:44:26;9.70;66.50
6824;DHT22;58633;49.470;11.004;2023-04-25T01:46:52;9.60;66.40
6824;DHT22;58633;49.470;11.004;2023-04-25T01:49:18;9.60;66.60
6824;DHT22;58633;49.470;11.004;2023-04-25T01:51:44;9.60;66.80
6824;DHT22;58633;49.470;11.004;2023-04-25T01:54:10;9.60;66.60
6824;DHT22;58633;49.470;11.004;2023-04-25T01:56:37;9.60;66.70
6824;DHT22;58633;49.470;11.004;2023-04-25T01:59:04;9.60;66.90
6824;DHT22;58633;49.470;11.004;2023-04-25T02:01:30;9.50;66.90
6824;DHT22;58633;49.470;11.004;2023-04-25T02:03:56;9.50;67.10
6824;DHT22;58633;49.470;11.004;2023-04-25T02:06:21;9.50;67.30
6824;DHT22;58633;49.470;11.004;2023-04-25T02:08:47;9.50;67.50
6824;DHT22;58633;49.470;11.004;2023-04-25T02:11:13;9.50;67.70
6824;DHT22;58633;49.470;11.004;2023-04-25T02:13:38;9.60;68.00
6824;DHT22;58633;49.470;11.004;2023-04-25T02:16:04;9.40;68.50
6824;DHT22;58633;49.470;11.004;2023-04-25T02:18:30;9.40;67.90
6824;DHT22;58633;49.470;11.004;2023-04-25T02:20:58;9.40;68.00
6824;DHT22;58633;49.470;11.004;2023-04-25T02:23:24;9.40;68.00
6824;DHT22;58633;49.470;11.004;2023-04-25T02:25:50;9.40;68.10
6824;DHT22;58633;49.470;11.004;2023-04-25T02:28:16;9.40;68.20
6824;DHT22;58633;49.470;11.004;2023-04-25T02:30:41;9.30;68.20
6824;DHT22;58633;49.470;11.004;2023-04-25T02:33:07;9.40;68.30
6824;DHT22;58633;49.470;11.004;2023-04-25T02:35:32;9.40;68.40
6824;DHT22;58633;49.470;11.004;2023-04-25T02:37:58;9.40;68.40
6824;DHT22;58633;49.470;11.004;2023-04-25T02:40:23;9.40;68.40
6824;DHT22;58633;49.470;11.004;2023-04-25T02:42:49;9.40;68.50
6824;DHT22;58633;49.470;11.004;2023-04-25T02:45:14;9.40;68.50
6824;DHT22;58633;49.470;11.004;2023-04-25T02:47:40;9.40;68.50
6824;DHT22;58633;49.470;11.004;2023-04-25T02:50:06;9.40;68.60
6824;DHT22;58633;49.470;11.004;2023-04-25T02:52:31;9.40;68.60
6824;DHT22;58633;49.470;11.004;2023-04-25T02:54:57;9.40;68.80
6824;DHT22;58633;49.470;11.004;2023-04-25T02:57:23;9.40;68.80
6824;DHT22;58633;49.470;11.004;2023-04-25T02:59:48;9.40;68.90
6824;DHT22;58633;49.470;11.004;2023-04-25T03:02:14;9.40;69.00
6824;DHT22;58633;49.470;11.004;2023-04-25T03:04:39;9.40;69.00
6824;DHT22;58633;49.470;11.004;2023-04-25T03:07:05;9.40;69.00
6824;DHT22;58633;49.470;11.004;2023-04-25T03:09:31;9.40;69.00
6824;DHT22;58633;49.470;11.004;2023-04-25T03:11:56;9.30;69.00
6824;DHT22;58633;49.470;11.004;2023-04-25T03:14:22;9.30;69.20
6824;DHT22;58633;49.470;11.004;2023-04-25T03:16:47;9.30;69.40
6824;DHT22;58633;49.470;11.004;2023-04-25T03:19:13;9.30;69.60
6824;DHT22;58633;49.470;11.004;2023-04-25T03:21:41;9.30;69.80
6824;DHT22;58633;49.470;11.004;2023-04-25T03:24:06;9.30;69.80
6824;DHT22;58633;49.470;11.004;2023-04-25T03:26:32;9.20;69.80
6824;DHT22;58633;49.470;11.004;2023-04-25T03:28:57;9.20;69.90
6824;DHT22;58633;49.470;11.004;2023-04-25T03:31:23;9.20;70.10
6824;DHT22;58633;49.470;11.004;2023-04-25T03:33:48;9.10;70.80
6824;DHT22;58633;49.470;11.004;2023-04-25T03:36:14;9.10;70.20
6824;DHT22;58633;49.470;11.004;2023-04-25T03:38:39;9.00;70.20
6824;DHT22;58633;49.470;11.004;2023-04-25T03:41:07;9.00;70.50
6824;DHT22;58633;49.470;11.004;2023-04-25T03:43:32;9.00;70.50
6824;DHT22;58633;49.470;11.004;2023-04-25T03:45:58;9.00;70.70
6824;DHT22;58633;49.470;11.004;2023-04-25T03:48:23;9.10;70.90
6824;DHT22;58633;49.470;11.004;2023-04-25T03:50:51;8.90;70.80
6824;DHT22;58633;49.470;11.004;2023-04-25T03:53:17;8.90;70.80
6824;DHT22;58633;49.470;11.004;2023-04-25T03:55:42;8.90;71.00
6824;DHT22;58633;49.470;11.004;2023-04-25T03:58:08;8.90;71.00
6824;DHT22;58633;49.470;11.004;2023-04-25T04:00:34;8.90;70.90
6824;DHT22;58633;49.470;11.004;2023-04-25T04:03:00;8.90;70.90
6824;DHT22;58633;49.470;11.004;2023-04-25T04:05:25;8.90;71.00
6824;DHT22;58633;49.470;11.004;2023-04-25T04:07:51;8.90;71.00
6824;DHT22;58633;49.470;11.004;2023-04-25T04:10:16;9.00;71.20
6824;DHT22;58633;49.470;11.004;2023-04-25T04:12:42;9.00;71.00
6824;DHT22;58633;49.470;11.004;2023-04-25T04:15:08;8.90;70.90
6824;DHT22;58633;49.470;11.004;2023-04-25T04:17:33;9.00;71.10
6824;DHT22;58633;49.470;11.004;2023-04-25T04:19:59;9.00;71.10
6824;DHT22;58633;49.470;11.004;2023-04-25T04:22:25;9.00;71.10
6824;DHT22;58633;49.470;11.004;2023-04-25T04:24:51;9.00;70.90
6824;DHT22;58633;49.470;11.004;2023-04-25T04:27:20;9.00;71.00
6824;DHT22;58633;49.470;11.004;2023-04-25T04:29:47;8.90;70.90
6824;DHT22;58633;49.470;11.004;2023-04-25T04:32:13;8.90;71.10
6824;DHT22;58633;49.470;11.004;2023-04-25T04:34:39;9.00;71.20
6824;DHT22;58633;49.470;11.004;2023-04-25T04:37:06;9.00;71.20
6824;DHT22;58633;49.470;11.004;2023-04-25T04:39:33;9.00;71.20
6824;DHT22;58633;49.470;11.004;2023-04-25T04:41:58;9.00;71.10
6824;DHT22;58633;49.470;11.004;2023-04-25T04:44:25;9.00;71.10
6824;DHT22;58633;49.470;11.004;2023-04-25T04:46:51;9.00;71.20
6824;DHT22;58633;49.470;11.004;2023-04-25T04:49:17;9.10;71.40
6824;DHT22;58633;49.470;11.004;2023-04-25T04:51:43;9.10;71.40
6824;DHT22;58633;49.470;11.004;2023-04-25T04:54:09;9.10;71.20
6824;DHT22;58633;49.470;11.004;2023-04-25T04:56:35;9.10;71.10
6824;DHT22;58633;49.470;11.004;2023-04-25T04:59:01;9.10;71.20
6824;DHT22;58633;49.470;11.004;2023-04-25T05:01:28;9.10;71.20
6824;DHT22;58633;49.470;11.004;2023-04-25T05:03:55;9.10;71.20
6824;DHT22;58633;49.470;11.004;2023-04-25T05:06:26;9.10;71.30
6824;DHT22;58633;49.470;11.004;2023-04-25T05:08:51;9.10;71.40
6824;DHT22;58633;49.470;11.004;2023-04-25T05:11:18;9.20;71.40
6824;DHT22;58633;49.470;11.004;2023-04-25T05:13:44;9.20;71.20
6824;DHT22;58633;49.470;11.004;2023-04-25T05:16:11;9.20;71.00
6824;DHT22;58633;49.470;11.004;2023-04-25T05:18:36;9.10;70.80
6824;DHT22;58633;49.470;11.004;2023-04-25T05:21:02;9.20;71.10
6824;DHT22;58633;49.470;11.004;2023-04-25T05:23:27;9.20;71.00
6824;DHT22;58633;49.470;11.004;2023-04-25T05:25:54;9.20;70.70
6824;DHT22;58633;49.470;11.004;2023-04-25T05:28:19;9.20;70.80
6824;DHT22;58633;49.470;11.004;2023-04-25T05:30:46;9.20;70.80
6824;DHT22;58633;49.470;11.004;2023-04-25T05:33:11;9.20;70.70
6824;DHT22;58633;49.470;11.004;2023-04-25T05:35:36;9.20;70.80
6824;DHT22;58633;49.470;11.004;2023-04-25T05:38:02;9.20;70.80
6824;DHT22;58633;49.470;11.004;2023-04-25T05:40:27;9.10;70.80
6824;DHT22;58633;49.470;11.004;2023-04-25T05:42:53;9.10;71.00
6824;DHT22;58633;49.470;11.004;2023-04-25T05:45:18;9.10;71.00
6824;DHT22;58633;49.470;11.004;2023-04-25T05:47:44;9.10;71.20
6824;DHT22;58633;49.470;11.004;2023-04-25T05:50:10;9.10;71.20
6824;DHT22;58633;49.470;11.004;2023-04-25T05:52:35;9.10;71.10
6824;DHT22;58633;49.470;11.004;2023-04-25T05:55:01;9.10;71.20
6824;DHT22;58633;49.470;11.004;2023-04-25T05:57:27;9.10;71.20
6824;DHT22;58633;49.470;11.004;2023-04-25T05:59:53;9.10;71.00
6824;DHT22;58633;49.470;11.004;2023-04-25T06:02:20;9.10;71.30
6824;DHT22;58633;49.470;11.004;2023-04-25T06:04:46;9.40;71.70
6824;DHT22;58633;49.470;11.004;2023-04-25T06:07:12;9.20;71.20
6824;DHT22;58633;49.470;11.004;2023-04-25T06:09:38;9.20;71.20
6824;DHT22;58633;49.470;11.004;2023-04-25T06:12:05;9.20;71.10
6824;DHT22;58633;49.470;11.004;2023-04-25T06:14:31;9.20;71.30
6824;DHT22;58633;49.470;11.004;2023-04-25T06:16:56;9.10;71.40
6824;DHT22;58633;49.470;11.004;2023-04-25T06:19:22;9.20;71.80
6824;DHT22;58633;49.470;11.004;2023-04-25T06:21:48;9.20;72.10
6824;DHT22;58633;49.470;11.004;2023-04-25T06:24:13;9.20;72.20
6824;DHT22;58633;49.470;11.004;2023-04-25T06:26:39;9.10;72.20
6824;DHT22;58633;49.470;11.004;2023-04-25T06:29:04;9.10;72.70
6824;DHT22;58633;49.470;11.004;2023-04-25T06:31:30;9.10;73.00
6824;DHT22;58633;49.470;11.004;2023-04-25T06:33:57;9.10;73.30
6824;DHT22;58633;49.470;11.004;2023-04-25T06:36:23;9.20;73.50
6824;DHT22;58633;49.470;11.004;2023-04-25T06:38:53;9.20;73.60
6824;DHT22;58633;49.470;11.004;2023-04-25T06:41:20;9.30;73.90
6824;DHT22;58633;49.470;11.004;2023-04-25T06:43:45;9.30;73.70
6824;DHT22;58633;49.470;11.004;2023-04-25T06:46:11;9.30;74.00
6824;DHT22;58633;49.470;11.004;2023-04-25T06:48:36;9.40;74.20
6824;DHT22;58633;49.470;11.004;2023-04-25T06:51:02;9.40;74.00
6824;DHT22;58633;49.470;11.004;2023-04-25T06:53:28;9.40;74.00
6824;DHT22;58633;49.470;11.004;2023-04-25T06:55:54;9.60;74.60
6824;DHT22;58633;49.470;11.004;2023-04-25T06:58:19;9.70;74.30
6824;DHT22;58633;49.470;11.004;2023-04-25T07:00:45;9.80;74.30
6824;DHT22;58633;49.470;11.004;2023-04-25T07:03:10;9.90;74.30
6824;DHT22;58633;49.470;11.004;2023-04-25T07:05:36;9.90;74.20
6824;DHT22;58633;49.470;11.004;2023-04-25T07:08:01;10.00;72.90
6824;DHT22;58633;49.470;11.004;2023-04-25T07:10:28;10.00;72.50
6824;DHT22;58633;49.470;11.004;2023-04-25T07:12:53;9.90;72.90
6824;DHT22;58633;49.470;11.004;2023-04-25T07:15:19;9.90;72.80
6824;DHT22;58633;49.470;11.004;2023-04-25T07:17:44;9.80;73.00
6824;DHT22;58633;49.470;11.004;2023-04-25T07:20:10;9.80;72.80
6824;DHT22;58633;49.470;11.004;2023-04-25T07:22:36;9.70;72.20
6824;DHT22;58633;49.470;11.004;2023-04-25T07:25:02;9.60;72.30
6824;DHT22;58633;49.470;11.004;2023-04-25T07:27:28;9.50;72.60
6824;DHT22;58633;49.470;11.004;2023-04-25T07:29:53;9.50;72.90
6824;DHT22;58633;49.470;11.004;2023-04-25T07:32:19;9.60;73.10
6824;DHT22;58633;49.470;11.004;2023-04-25T07:34:45;9.60;72.70
6824;DHT22;58633;49.470;11.004;2023-04-25T07:37:10;9.60;72.50
6824;DHT22;58633;49.470;11.004;2023-04-25T07:39:36;9.60;71.90
6824;DHT22;58633;49.470;11.004;2023-04-25T07:42:02;9.60;72.10
6824;DHT22;58633;49.470;11.004;2023-04-25T07:44:29;9.60;72.00
6824;DHT22;58633;49.470;11.004;2023-04-25T07:46:56;9.60;72.00
6824;DHT22;58633;49.470;11.004;2023-04-25T07:49:21;9.60;71.90
6824;DHT22;58633;49.470;11.004;2023-04-25T07:51:47;9.60;71.60
6824;DHT22;58633;49.470;11.004;2023-04-25T07:54:14;9.70;71.40
6824;DHT22;58633;49.470;11.004;2023-04-25T07:56:40;9.70;71.20
6824;DHT22;58633;49.470;11.004;2023-04-25T07:59:06;9.70;70.90
6824;DHT22;58633;49.470;11.004;2023-04-25T08:01:31;9.60;70.80
6824;DHT22;58633;49.470;11.004;2023-04-25T08:03:57;9.60;70.80
6824;DHT22;58633;49.470;11.004;2023-04-25T08:06:22;9.60;70.80
6824;DHT22;58633;49.470;11.004;2023-04-25T08:08:48;9.50;70.20
6824;DHT22;58633;49.470;11.004;2023-04-25T08:11:13;9.50;69.90
6824;DHT22;58633;49.470;11.004;2023-04-25T08:13:39;9.60;69.70
6824;DHT22;58633;49.470;11.004;2023-04-25T08:16:05;9.80;69.20
6824;DHT22;58633;49.470;11.004;2023-04-25T08:18:30;10.20;67.80
6824;DHT22;58633;49.470;11.004;2023-04-25T08:20:56;9.90;68.10
6824;DHT22;58633;49.470;11.004;2023-04-25T08:23:22;10.00;66.40
6824;DHT22;58633;49.470;11.004;2023-04-25T08:25:47;10.10;66.10
6824;DHT22;58633;49.470;11.004;2023-04-25T08:28:13;10.20;65.80
6824;DHT22;58633;49.470;11.004;2023-04-25T08:30:40;10.30;65.30
6824;DHT22;58633;49.470;11.004;2023-04-25T08:33:06;10.30;65.20
6824;DHT22;58633;49.470;11.004;2023-04-25T08:35:31;10.40;65.10
6824;DHT22;58633;49.470;11.004;2023-04-25T08:37:58;10.40;64.50
6824;DHT22;58633;49.470;11.004;2023-04-25T08:40:27;10.40;64.60
6824;DHT22;58633;49.470;11.004;2023-04-25T08:42:57;10.50;64.60
6824;DHT22;58633;49.470;11.004;2023-04-25T08:45:22;10.60;65.00
6824;DHT22;58633;49.470;11.004;2023-04-25T08:47:51;10.70;64.90
6824;DHT22;58633;49.470;11.004;2023-04-25T08:50:17;10.90;65.10
6824;DHT22;58633;49.470;11.004;2023-04-25T08:52:45;10.90;64.70
6824;DHT22;58633;49.470;11.004;2023-04-25T08:55:13;11.00;64.70
6824;DHT22;58633;49.470;11.004;2023-04-25T08:57:41;10.80;64.70
6824;DHT22;58633;49.470;11.004;2023-04-25T09:00:09;10.70;64.70
6824;DHT22;58633;49.470;11.004;2023-04-25T09:02:35;10.60;64.90
6824;DHT22;58633;49.470;11.004;2023-04-25T09:05:02;10.40;64.80
6824;DHT22;58633;49.470;11.004;2023-04-25T09:07:29;10.20;64.70
6824;DHT22;58633;49.470;11.004;2023-04-25T09:09:55;10.10;65.20
6824;DHT22;58633;49.470;11.004;2023-04-25T09:12:20;10.20;65.60
6824;DHT22;58633;49.470;11.004;2023-04-25T09:17:31;10.40;66.00
6824;DHT22;58633;49.470;11.004;2023-04-25T09:20:06;10.50;65.40
6824;DHT22;58633;49.470;11.004;2023-04-25T09:22:32;10.50;65.20
6824;DHT22;58633;49.470;11.004;2023-04-25T09:25:09;10.60;65.40
6824;DHT22;58633;49.470;11.004;2023-04-25T09:27:34;10.90;65.50
6824;DHT22;58633;49.470;11.004;2023-04-25T09:30:01;11.20;65.10
6824;DHT22;58633;49.470;11.004;2023-04-25T09:32:26;11.50;65.00
6824;DHT22;58633;49.470;11.004;2023-04-25T09:34:54;11.90;65.00
6824;DHT22;58633;49.470;11.004;2023-04-25T09:37:28;12.10;64.20
6824;DHT22;58633;49.470;11.004;2023-04-25T09:39:58;12.00;62.40
6824;DHT22;58633;49.470;11.004;2023-04-25T09:42:28;11.90;62.50
6824;DHT22;58633;49.470;11.004;2023-04-25T09:44:57;11.90;62.60
6824;DHT22;58633;49.470;11.004;2023-04-25T09:47:24;11.90;62.30
6824;DHT22;58633;49.470;11.004;2023-04-25T09:49:51;12.20;62.30
6824;DHT22;58633;49.470;11.004;2023-04-25T09:52:24;12.50;62.10
6824;DHT22;58633;49.470;11.004;2023-04-25T09:54:50;12.90;61.90
6824;DHT22;58633;49.470;11.004;2023-04-25T09:57:18;13.40;61.60
6824;DHT22;58633;49.470;11.004;2023-04-25T09:59:46;13.50;60.40
6824;DHT22;58633;49.470;11.004;2023-04-25T10:02:13;13.60;59.50
6824;DHT22;58633;49.470;11.004;2023-04-25T10:04:39;13.40;59.90
6824;DHT22;58633;49.470;11.004;2023-04-25T10:07:07;13.30;58.90
6824;DHT22;58633;49.470;11.004;2023-04-25T10:09:33;13.20;59.10
6824;DHT22;58633;49.470;11.004;2023-04-25T10:12:02;13.00;58.70
6824;DHT22;58633;49.470;11.004;2023-04-25T10:14:31;12.90;58.90
6824;DHT22;58633;49.470;11.004;2023-04-25T10:16:58;13.00;59.00
6824;DHT22;58633;49.470;11.004;2023-04-25T10:19:24;13.20;58.80
6824;DHT22;58633;49.470;11.004;2023-04-25T10:21:54;13.60;58.90
6824;DHT22;58633;49.470;11.004;2023-04-25T10:24:21;13.90;58.10
6824;DHT22;58633;49.470;11.004;2023-04-25T10:26:47;13.90;57.50
6824;DHT22;58633;49.470;11.004;2023-04-25T10:29:21;13.90;57.00
6824;DHT22;58633;49.470;11.004;2023-04-25T10:31:47;14.00;56.60
6824;DHT22;58633;49.470;11.004;2023-04-25T10:34:13;13.70;56.30
6824;DHT22;58633;49.470;11.004;2023-04-25T10:36:39;13.70;56.10
6824;DHT22;58633;49.470;11.004;2023-04-25T10:39:05;13.70;55.40
6824;DHT22;58633;49.470;11.004;2023-04-25T10:41:57;13.60;55.20
6824;DHT22;58633;49.470;11.004;2023-04-25T10:44:26;13.80;55.00
6824;DHT22;58633;49.470;11.004;2023-04-25T10:46:58;14.10;54.60
6824;DHT22;58633;49.470;11.004;2023-04-25T10:49:32;14.50;53.70
6824;DHT22;58633;49.470;11.004;2023-04-25T10:52:18;14.70;52.40
6824;DHT22;58633;49.470;11.004;2023-04-25T10:54:57;14.80;51.00
6824;DHT22;58633;49.470;11.004;2023-04-25T11:00:10;14.30;49.80
6824;DHT22;58633;49.470;11.004;2023-04-25T11:02:52;14.20;50.20
6824;DHT22;58633;49.470;11.004;2023-04-25T11:05:31;14.40;50.30
6824;DHT22;58633;49.470;11.004;2023-04-25T11:07:58;14.90;50.60
6824;DHT22;58633;49.470;11.004;2023-04-25T11:10:29;15.70;50.20
6824;DHT22;58633;49.470;11.004;2023-04-25T11:12:56;15.80;49.00
6824;DHT22;58633;49.470;11.004;2023-04-25T11:15:21;15.60;48.90
6824;DHT22;58633;49.470;11.004;2023-04-25T11:17:47;15.40;49.10
6824;DHT22;58633;49.470;11.004;2023-04-25T11:20:13;15.30;49.30
6824;DHT22;58633;49.470;11.004;2023-04-25T11:22:41;15.10;49.30
6824;DHT22;58633;49.470;11.004;2023-04-25T11:25:10;15.00;49.20
6824;DHT22;58633;49.470;11.004;2023-04-25T11:27:53;15.00;49.00
6824;DHT22;58633;49.470;11.004;2023-04-25T11:30:19;15.00;48.60
6824;DHT22;58633;49.470;11.004;2023-04-25T11:32:46;15.10;48.60
6824;DHT22;58633;49.470;11.004;2023-04-25T11:35:12;15.20;47.50
6824;DHT22;58633;49.470;11.004;2023-04-25T11:37:42;15.30;47.40
6824;DHT22;58633;49.470;11.004;2023-04-25T11:40:09;15.20;46.90
6824;DHT22;58633;49.470;11.004;2023-04-25T11:42:38;15.20;47.10
6824;DHT22;58633;49.470;11.004;2023-04-25T11:45:05;15.40;46.70
6824;DHT22;58633;49.470;11.004;2023-04-25T11:47:31;15.80;47.20
6824;DHT22;58633;49.470;11.004;2023-04-25T11:49:58;16.20;47.20
6824;DHT22;58633;49.470;11.004;2023-04-25T11:52:34;16.60;47.00
6824;DHT22;58633;49.470;11.004;2023-04-25T11:55:00;17.00;46.50
6824;DHT22;58633;49.470;11.004;2023-04-25T11:57:26;17.40;46.00
6824;DHT22;58633;49.470;11.004;2023-04-25T11:59:51;17.70;45.40
6824;DHT22;58633;49.470;11.004;2023-04-25T12:02:26;18.10;44.50
6824;DHT22;58633;49.470;11.004;2023-04-25T12:04:52;18.30;43.60
6824;DHT22;58633;49.470;11.004;2023-04-25T12:07:17;18.70;43.80
6824;DHT22;58633;49.470;11.004;2023-04-25T12:09:51;18.90;43.20
6824;DHT22;58633;49.470;11.004;2023-04-25T12:12:17;19.00;42.40
6824;DHT22;58633;49.470;11.004;2023-04-25T12:14:46;19.10;42.70
6824;DHT22;58633;49.470;11.004;2023-04-25T12:17:13;19.30;42.30
6824;DHT22;58633;49.470;11.004;2023-04-25T12:19:39;19.00;41.30
6824;DHT22;58633;49.470;11.004;2023-04-25T12:22:22;18.50;40.90
6824;DHT22;58633;49.470;11.004;2023-04-25T12:24:48;18.20;41.90
6824;DHT22;58633;49.470;11.004;2023-04-25T12:27:15;18.20;42.60
6824;DHT22;58633;49.470;11.004;2023-04-25T12:29:50;18.50;42.50
6824;DHT22;58633;49.470;11.004;2023-04-25T12:32:16;18.40;42.30
6824;DHT22;58633;49.470;11.004;2023-04-25T12:34:43;18.20;42.20
6824;DHT22;58633;49.470;11.004;2023-04-25T12:37:08;18.00;42.20
6824;DHT22;58633;49.470;11.004;2023-04-25T12:39:34;17.80;42.50
6824;DHT22;58633;49.470;11.004;2023-04-25T12:42:00;17.60;42.70
6824;DHT22;58633;49.470;11.004;2023-04-25T12:44:26;17.60;42.70
6824;DHT22;58633;49.470;11.004;2023-04-25T12:46:52;17.40;42.80
6824;DHT22;58633;49.470;11.004;2023-04-25T12:49:18;17.10;42.30
6824;DHT22;58633;49.470;11.004;2023-04-25T12:51:43;17.00;42.90
6824;DHT22;58633;49.470;11.004;2023-04-25T12:54:09;17.00;43.30
6824;DHT22;58633;49.470;11.004;2023-04-25T12:56:35;17.20;43.30
6824;DHT22;58633;49.470;11.004;2023-04-25T12:59:01;17.40;42.90
6824;DHT22;58633;49.470;11.004;2023-04-25T13:01:28;18.30;42.90
6824;DHT22;58633;49.470;11.004;2023-04-25T13:03:54;18.60;41.80
6824;DHT22;58633;49.470;11.004;2023-04-25T13:06:21;18.30;41.80
6824;DHT22;58633;49.470;11.004;2023-04-25T13:08:47;18.10;41.60
6824;DHT22;58633;49.470;11.004;2023-04-25T13:11:12;18.10;41.30
6824;DHT22;58633;49.470;11.004;2023-04-25T13:13:40;17.80;41.00
6824;DHT22;58633;49.470;11.004;2023-04-25T13:16:06;17.60;41.50
6824;DHT22;58633;49.470;11.004;2023-04-25T13:18:32;17.40;41.80
6824;DHT22;58633;49.470;11.004;2023-04-25T13:20:58;17.10;41.90
6824;DHT22;58633;49.470;11.004;2023-04-25T13:23:25;17.00;42.50
6824;DHT22;58633;49.470;11.004;2023-04-25T13:25:51;16.90;42.70
6824;DHT22;58633;49.470;11.004;2023-04-25T13:28:17;17.10;42.80
6824;DHT22;58633;49.470;11.004;2023-04-25T13:30:42;17.50;42.70
6824;DHT22;58633;49.470;11.004;2023-04-25T13:33:08;17.30;42.10
6824;DHT22;58633;49.470;11.004;2023-04-25T13:35:35;17.00;42.30
6824;DHT22;58633;49.470;11.004;2023-04-25T13:38:01;16.70;42.50
6824;DHT22;58633;49.470;11.004;2023-04-25T13:40:27;16.40;42.90
6824;DHT22;58633;49.470;11.004;2023-04-25T13:42:53;16.10;43.00
6824;DHT22;58633;49.470;11.004;2023-04-25T13:45:19;15.90;43.40
6824;DHT22;58633;49.470;11.004;2023-04-25T13:47:45;15.70;43.50
6824;DHT22;58633;49.470;11.004;2023-04-25T13:50:11;15.50;43.80
6824;DHT22;58633;49.470;11.004;2023-04-25T13:52:37;15.30;44.00
6824;DHT22;58633;49.470;11.004;2023-04-25T13:55:03;15.30;44.20
6824;DHT22;58633;49.470;11.004;2023-04-25T13:57:30;15.20;44.30
6824;DHT22;58633;49.470;11.004;2023-04-25T13:59:56;15.30;44.40
6824;DHT22;58633;49.470;11.004;2023-04-25T14:02:21;15.50;44.50
6824;DHT22;58633;49.470;11.004;2023-04-25T14:04:47;15.70;44.30
6824;DHT22;58633;49.470;11.004;2023-04-25T14:07:13;16.00;44.30
6824;DHT22;58633;49.470;11.004;2023-04-25T14:09:41;15.70;44.70
6824;DHT22;58633;49.470;11.004;2023-04-25T14:12:07;15.50;44.20
6824;DHT22;58633;49.470;11.004;2023-04-25T14:14:32;15.50;44.50
6824;DHT22;58633;49.470;11.004;2023-04-25T14:16:58;15.30;44.60
6824;DHT22;58633;49.470;11.004;2023-04-25T14:19:24;15.00;44.60
6824;DHT22;58633;49.470;11.004;2023-04-25T14:21:49;14.80;45.00
6824;DHT22;58633;49.470;11.004;2023-04-25T14:24:15;14.70;45.30
6824;DHT22;58633;49.470;11.004;2023-04-25T14:26:41;14.70;45.50
6824;DHT22;58633;49.470;11.004;2023-04-25T14:29:07;14.60;45.70
6824;DHT22;58633;49.470;11.004;2023-04-25T14:31:34;14.50;45.80
6824;DHT22;58633;49.470;11.004;2023-04-25T14:34:01;14.40;46.00
6824;DHT22;58633;49.470;11.004;2023-04-25T14:36:28;14.30;46.00
6824;DHT22;58633;49.470;11.004;2023-04-25T14:38:54;14.20;46.30
6824;DHT22;58633;49.470;11.004;2023-04-25T14:41:19;14.20;46.50
6824;DHT22;58633;49.470;11.004;2023-04-25T14:43:45;14.10;46.60
6824;DHT22;58633;49.470;11.004;2023-04-25T14:46:11;14.10;46.80
6824;DHT22;58633;49.470;11.004;2023-04-25T14:48:36;14.00;46.80
6824;DHT22;58633;49.470;11.004;2023-04-25T14:51:02;14.00;46.90
6824;DHT22;58633;49.470;11.004;2023-04-25T14:53:28;14.00;47.00
6824;DHT22;58633;49.470;11.004;2023-04-25T14:55:54;14.00;47.20
6824;DHT22;58633;49.470;11.004;2023-04-25T14:58:19;13.90;47.10
6824;DHT22;58633;49.470;11.004;2023-04-25T15:00:46;13.90;47.40
6824;DHT22;58633;49.470;11.004;2023-04-25T15:03:11;13.80;47.10
6824;DHT22;58633;49.470;11.004;2023-04-25T15:05:38;13.80;47.20
6824;DHT22;58633;49.470;11.004;2023-04-25T15:08:04;13.90;47.20
6824;DHT22;58633;49.470;11.004;2023-04-25T15:10:30;13.80;46.90
6824;DHT22;58633;49.470;11.004;2023-04-25T15:12:55;13.70;46.80
6824;DHT22;58633;49.470;11.004;2023-04-25T15:15:21;13.70;46.90
6824;DHT22;58633;49.470;11.004;2023-04-25T15:17:47;13.70;46.80
6824;DHT22;58633;49.470;11.004;2023-04-25T15:20:13;13.70;47.10
6824;DHT22;58633;49.470;11.004;2023-04-25T15:22:41;13.60;47.10
6824;DHT22;58633;49.470;11.004;2023-04-25T15:25:07;13.60;47.20
6824;DHT22;58633;49.470;11.004;2023-04-25T15:27:34;13.60;47.40
6824;DHT22;58633;49.470;11.004;2023-04-25T15:30:04;13.50;47.40
6824;DHT22;58633;49.470;11.004;2023-04-25T15:32:32;13.40;47.60
6824;DHT22;58633;49.470;11.004;2023-04-25T15:34:57;13.30;48.00
6824;DHT22;58633;49.470;11.004;2023-04-25T15:37:23;13.80;48.60
6824;DHT22;58633;49.470;11.004;2023-04-25T15:40:01;14.30;48.00
6824;DHT22;58633;49.470;11.004;2023-04-25T15:42:27;14.40;47.60